createdAt,value
2023-04-05T00:01:50.035Z,49.68
2023-04-05T00:06:55.205Z,49.27
2023-04-05T00:11:57.995Z,49.26
2023-04-05T00:17:00.999Z,49.67
2023-04-05T00:22:05.309Z,49.59
2023-04-05T00:27:08.132Z,49.87
2023-04-05T00:32:11.209Z,50.16
2023-04-05T00:37:15.543Z,49.72
2023-04-05T00:42:18.370Z,49.68
2023-04-05T00:47:21.336Z,49.72
2023-04-05T00:52:27.115Z,50.66
2023-04-05T00:57:30.280Z,50.42
2023-04-05T01:02:36.611Z,50.73
2023-04-05T01:07:47.481Z,51.49
2023-04-05T01:12:50.786Z,51.19
2023-04-05T01:17:54.233Z,51.45
2023-04-05T01:23:14.977Z,51.11
2023-04-05T01:28:36.090Z,50.88
2023-04-05T01:33:46.096Z,51.22
2023-04-05T01:38:52.000Z,51.41
2023-04-05T01:43:54.752Z,51.91
2023-04-05T01:48:59.340Z,52.27
2023-04-05T01:54:02.279Z,52.56
2023-04-05T01:59:05.326Z,53.09
2023-04-05T02:04:09.605Z,53.30
2023-04-05T02:09:13.882Z,53.46
2023-04-05T02:14:17.167Z,53.90
2023-04-05T02:19:23.116Z,54.31
2023-04-05T02:24:26.554Z,54.31
2023-04-05T02:29:29.746Z,54.86
2023-04-05T02:34:34.326Z,55.39
2023-04-05T02:39:37.134Z,54.92
2023-04-05T02:44:41.163Z,54.92
2023-04-05T02:49:47.241Z,55.05
2023-04-05T02:54:51.802Z,55.20
2023-04-05T03:00:01.191Z,55.50
2023-04-05T03:05:09.771Z,55.50
2023-04-05T03:10:18.646Z,56.38
2023-04-05T03:15:28.051Z,56.53
2023-04-05T03:20:35.501Z,56.70
2023-04-05T03:25:41.623Z,56.85
2023-04-05T03:30:45.900Z,56.73
2023-04-05T03:35:56.417Z,57.48
2023-04-05T03:41:00.103Z,57.81
2023-04-05T03:46:05.160Z,57.86
2023-04-05T03:51:09.586Z,58.02
2023-04-05T03:56:12.608Z,57.72
2023-04-05T04:01:21.380Z,57.05
2023-04-05T04:06:27.460Z,57.11
2023-04-05T04:11:30.878Z,58.39
2023-04-05T04:16:37.542Z,58.62
2023-04-05T04:21:53.110Z,58.83
2023-04-05T04:27:19.966Z,59.10
2023-04-05T04:32:57.978Z,58.73
2023-04-05T04:38:09.137Z,59.09
2023-04-05T04:43:26.713Z,59.19
2023-04-05T04:48:48.194Z,59.46
2023-04-05T04:54:07.373Z,59.60
2023-04-05T04:59:10.390Z,59.92
2023-04-05T05:04:13.328Z,60.43
2023-04-05T05:09:19.216Z,60.12
2023-04-05T05:14:26.653Z,59.78
2023-04-05T05:19:30.112Z,60.25
2023-04-05T05:24:35.506Z,60.29
2023-04-05T05:29:38.323Z,60.13
2023-04-05T05:34:41.725Z,59.92
2023-04-05T05:39:45.904Z,59.37
2023-04-05T05:44:48.712Z,59.52
2023-04-05T05:49:51.533Z,59.66
2023-04-05T05:54:55.865Z,59.67
2023-04-05T05:59:58.971Z,59.81
2023-04-05T06:05:02.246Z,59.41
2023-04-05T06:10:07.648Z,58.95
2023-04-05T06:15:11.392Z,59.71
2023-04-05T06:20:14.491Z,60.73
2023-04-05T06:25:18.988Z,58.53
2023-04-05T06:30:22.016Z,55.55
2023-04-05T06:35:27.789Z,55.78
2023-04-05T06:40:32.138Z,53.54
2023-04-05T06:45:35.015Z,51.12
2023-04-05T06:50:37.894Z,51.12
2023-04-05T06:55:42.608Z,51.10
2023-04-05T07:00:45.497Z,50.46
2023-04-05T07:05:52.798Z,50.63
2023-04-05T07:10:57.008Z,49.57
2023-04-05T07:16:03.657Z,48.75
2023-04-05T07:21:06.657Z,48.34
2023-04-05T07:26:12.382Z,47.53
2023-04-05T07:31:16.451Z,47.01
2023-04-05T07:36:19.409Z,45.60
2023-04-05T07:41:23.761Z,45.54
2023-04-05T07:46:27.322Z,45.27
2023-04-05T07:51:31.535Z,44.76
2023-04-05T07:56:37.775Z,44.28
2023-04-05T08:01:40.555Z,43.42
2023-04-05T08:06:43.321Z,43.34
2023-04-05T08:11:47.450Z,43.95
2023-04-05T08:16:50.774Z,42.43
2023-04-05T08:21:54.041Z,40.73
2023-04-05T08:26:58.228Z,39.60
2023-04-05T08:32:01.019Z,40.07
2023-04-05T08:37:03.861Z,39.04
2023-04-05T08:42:13.242Z,38.32
2023-04-05T08:47:20.690Z,37.96
2023-04-05T08:52:23.545Z,37.36
2023-04-05T08:57:32.637Z,37.18
2023-04-05T09:02:36.544Z,36.49
2023-04-05T09:07:40.076Z,36.53
2023-04-05T09:12:44.409Z,36.70
2023-04-05T09:17:47.457Z,36.26
2023-04-05T09:22:50.538Z,35.21
2023-04-05T09:27:57.655Z,34.40
2023-04-05T09:33:01.324Z,33.07
2023-04-05T09:38:06.157Z,33.48
2023-04-05T09:43:13.326Z,32.75
2023-04-05T09:48:16.228Z,33.64
2023-04-05T09:53:19.332Z,33.05
2023-04-05T09:58:33.882Z,31.58
2023-04-05T10:03:48.430Z,31.90
2023-04-05T10:08:52.540Z,31.74
2023-04-05T10:13:56.694Z,31.76
2023-04-05T10:18:59.479Z,31.40
2023-04-05T10:24:11.129Z,29.73
2023-04-05T10:29:21.180Z,29.10
2023-04-05T10:34:32.331Z,31.05
2023-04-05T10:39:41.023Z,30.13
2023-04-05T10:44:49.372Z,30.67
2023-04-05T10:49:55.266Z,30.51
2023-04-05T10:55:00.027Z,29.82
2023-04-05T11:00:05.265Z,28.33
2023-04-05T11:05:29.269Z,25.99
2023-04-05T11:10:33.169Z,26.24
2023-04-05T11:15:37.823Z,24.95
2023-04-05T11:20:45.174Z,24.04
2023-04-05T11:25:51.682Z,23.99
2023-04-05T11:30:58.805Z,23.72
2023-04-05T11:36:02.942Z,25.43
2023-04-05T11:41:17.480Z,25.50
2023-04-05T11:46:22.532Z,24.98
2023-04-05T11:51:29.106Z,24.51
2023-04-05T11:56:31.952Z,25.55
2023-04-05T12:01:36.388Z,25.19
2023-04-05T12:06:39.364Z,23.34
2023-04-05T12:11:42.274Z,24.58
2023-04-05T12:16:51.306Z,25.20
2023-04-05T12:21:54.220Z,26.32
2023-04-05T12:26:59.149Z,25.06
2023-04-05T12:32:04.885Z,24.52
2023-04-05T12:37:07.718Z,23.75
2023-04-05T12:42:18.522Z,23.65
2023-04-05T12:47:22.727Z,23.35
2023-04-05T12:52:28.181Z,23.95
2023-04-05T12:57:32.162Z,23.59
2023-04-05T13:02:36.635Z,21.56
2023-04-05T13:07:39.967Z,22.59
2023-04-05T13:12:43.141Z,23.63
2023-04-05T13:17:49.878Z,21.89
2023-04-05T13:22:53.074Z,21.52
2023-04-05T13:27:56.027Z,22.51
2023-04-05T13:33:00.295Z,23.77
2023-04-05T13:38:04.542Z,23.87
2023-04-05T13:43:07.623Z,22.43
2023-04-05T13:48:11.868Z,22.25
2023-04-05T13:53:15.434Z,24.02
2023-04-05T13:58:18.380Z,24.94
2023-04-05T14:03:22.895Z,22.24
2023-04-05T14:08:25.889Z,23.51
2023-04-05T14:13:28.655Z,23.34
2023-04-05T14:18:32.889Z,22.33
2023-04-05T14:23:38.376Z,22.72
2023-04-05T14:28:41.432Z,22.44
2023-04-05T14:33:45.749Z,23.55
2023-04-05T14:38:48.867Z,22.28
2023-04-05T14:43:51.719Z,23.22
2023-04-05T14:48:56.047Z,23.56
2023-04-05T14:53:58.861Z,22.39
2023-04-05T14:59:02.477Z,23.46
2023-04-05T15:04:09.280Z,21.83
2023-04-05T15:09:12.342Z,22.91
2023-04-05T15:14:24.816Z,23.16
2023-04-05T15:19:36.185Z,23.91
2023-04-05T15:24:40.454Z,23.67
2023-04-05T15:29:43.277Z,22.76
2023-04-05T15:34:47.483Z,23.63
2023-04-05T15:39:50.270Z,24.05
2023-04-05T15:44:53.086Z,23.17
2023-04-05T15:49:58.336Z,22.83
2023-04-05T15:55:01.232Z,23.66
2023-04-05T16:00:04.806Z,23.95
2023-04-05T16:05:09.309Z,24.49
2023-04-05T16:10:12.670Z,25.03
2023-04-05T16:15:15.570Z,25.49
2023-04-05T16:20:19.880Z,25.65
2023-04-05T16:25:22.816Z,27.39
2023-04-05T16:30:26.119Z,25.73
2023-04-05T16:35:31.111Z,26.24
2023-04-05T16:40:34.313Z,25.70
2023-04-05T16:45:37.489Z,26.41
2023-04-05T16:50:42.155Z,26.57
2023-04-05T16:55:45.005Z,26.80
2023-04-05T17:00:47.873Z,27.16
2023-04-05T17:05:52.192Z,27.82
2023-04-05T17:10:55.199Z,27.27
2023-04-05T17:15:58.106Z,28.07
2023-04-05T17:21:02.346Z,28.37
2023-04-05T17:26:05.546Z,29.57
2023-04-05T17:31:08.478Z,30.23
2023-04-05T17:36:12.820Z,31.41
2023-04-05T17:41:15.709Z,32.23
2023-04-05T17:46:27.269Z,33.29
2023-04-05T17:51:34.929Z,33.55
2023-04-05T17:56:38.121Z,33.90
2023-04-05T18:01:41.067Z,34.41
2023-04-05T18:06:45.244Z,34.62
2023-04-05T18:11:48.082Z,34.50
2023-04-05T18:16:51.142Z,35.01
2023-04-05T18:21:55.400Z,35.34
2023-04-05T18:26:58.430Z,35.73
2023-04-05T18:32:01.479Z,36.18
2023-04-05T18:37:06.082Z,36.17
2023-04-05T18:42:09.069Z,36.41
2023-04-05T18:47:11.943Z,36.80
2023-04-05T18:52:21.874Z,36.90
2023-04-05T18:57:26.360Z,37.24
2023-04-05T19:02:29.316Z,37.17
2023-04-05T19:07:33.576Z,37.24
2023-04-05T19:12:36.395Z,37.38
2023-04-05T19:17:39.208Z,37.51
2023-04-05T19:22:43.498Z,37.98
2023-04-05T19:27:46.464Z,38.37
2023-04-05T19:32:49.818Z,38.74
2023-04-05T19:37:54.062Z,39.25
2023-04-05T19:42:56.922Z,39.29
2023-04-05T19:48:01.665Z,39.18
2023-04-05T19:53:08.668Z,39.10
2023-04-05T19:58:12.586Z,39.64
2023-04-05T20:03:30.286Z,39.88
2023-04-05T20:08:36.494Z,40.32
2023-04-05T20:13:43.186Z,40.68
2023-04-05T20:18:47.296Z,40.85
2023-04-05T20:23:51.645Z,41.29
2023-04-05T20:28:55.503Z,41.61
2023-04-05T20:33:59.706Z,42.00
2023-04-05T20:39:06.136Z,42.00
2023-04-05T20:44:09.182Z,41.96
2023-04-05T20:49:12.514Z,42.41
2023-04-05T20:54:16.796Z,42.91
2023-04-05T20:59:19.757Z,43.19
2023-04-05T21:04:22.646Z,43.39
2023-04-05T21:09:27.727Z,43.41
2023-04-05T21:14:30.562Z,43.46
2023-04-05T21:19:33.386Z,43.66
2023-04-05T21:24:37.588Z,43.69
2023-04-05T21:29:40.419Z,43.66
2023-04-05T21:34:43.279Z,43.75
2023-04-05T21:39:47.463Z,43.86
2023-04-05T21:44:50.255Z,43.92
2023-04-05T21:49:53.380Z,43.95
2023-04-05T21:54:58.242Z,44.05
2023-04-05T22:00:01.349Z,44.13
2023-04-05T22:05:04.382Z,44.42
2023-04-05T22:10:09.935Z,44.63
2023-04-05T22:15:12.770Z,45.22
2023-04-05T22:20:15.560Z,45.41
2023-04-05T22:25:19.783Z,45.62
2023-04-05T22:30:22.744Z,45.63
2023-04-05T22:35:25.634Z,45.85
2023-04-05T22:40:29.764Z,46.32
2023-04-05T22:45:32.519Z,46.49
2023-04-05T22:50:35.370Z,46.82
2023-04-05T22:55:40.093Z,47.01
2023-04-05T23:00:42.903Z,47.15
2023-04-05T23:05:45.737Z,47.34
2023-04-05T23:10:49.972Z,47.40
2023-04-05T23:15:52.800Z,47.45
2023-04-05T23:20:55.684Z,47.06
2023-04-05T23:25:59.852Z,47.41
2023-04-05T23:31:02.648Z,47.41
2023-04-05T23:36:06.419Z,47.04
2023-04-05T23:41:11.009Z,46.97
2023-04-05T23:46:13.874Z,46.63
2023-04-05T23:51:16.972Z,46.64
2023-04-05T23:56:21.149Z,46.19
